createdAt,value
2022-12-29T00:00:33.564Z,65.51
2022-12-29T00:05:34.897Z,65.25
2022-12-29T00:10:36.223Z,64.92
2022-12-29T00:15:37.681Z,65.06
2022-12-29T00:20:59.432Z,65.46
2022-12-29T00:26:23.081Z,65.13
2022-12-29T00:31:50.575Z,65.82
2022-12-29T00:36:52.027Z,65.76
2022-12-29T00:42:12.230Z,66.15
2022-12-29T00:47:13.615Z,65.71
2022-12-29T00:52:15.589Z,66.08
2022-12-29T00:57:16.962Z,66.37
2022-12-29T01:02:19.552Z,65.99
2022-12-29T01:07:21.035Z,66.49
2022-12-29T01:12:41.166Z,66.37
2022-12-29T01:17:42.921Z,66.63
2022-12-29T01:22:44.695Z,66.29
2022-12-29T01:27:46.104Z,66.75
2022-12-29T01:32:47.433Z,66.67
2022-12-29T01:37:48.751Z,67.00
2022-12-29T01:42:50.219Z,67.04
2022-12-29T01:47:55.468Z,67.47
2022-12-29T01:53:08.471Z,67.17
2022-12-29T01:58:11.849Z,67.39
2022-12-29T02:03:13.586Z,67.44
2022-12-29T02:08:15.773Z,67.95
2022-12-29T02:13:18.383Z,67.68
2022-12-29T02:18:31.759Z,67.48
2022-12-29T02:24:05.213Z,67.86
2022-12-29T02:29:15.535Z,67.57
2022-12-29T02:34:24.123Z,67.97
2022-12-29T02:39:46.920Z,68.00
2022-12-29T02:44:57.829Z,68.42
2022-12-29T02:50:15.949Z,68.38
2022-12-29T02:55:17.360Z,68.59
2022-12-29T03:00:19.654Z,68.71
2022-12-29T03:05:52.168Z,69.06
2022-12-29T03:11:04.361Z,69.07
2022-12-29T03:16:16.500Z,69.02
2022-12-29T03:21:53.223Z,69.19
2022-12-29T03:26:58.294Z,68.87
2022-12-29T03:32:02.507Z,69.25
2022-12-29T03:37:11.320Z,69.26
2022-12-29T03:42:16.061Z,69.00
2022-12-29T03:47:17.430Z,68.37
2022-12-29T03:52:19.035Z,68.11
2022-12-29T03:57:20.365Z,68.13
2022-12-29T04:02:22.161Z,68.19
2022-12-29T04:07:23.669Z,67.94
2022-12-29T04:12:24.984Z,67.15
2022-12-29T04:17:26.320Z,66.96
2022-12-29T04:22:27.616Z,66.81
2022-12-29T04:27:28.919Z,66.16
2022-12-29T04:32:30.233Z,66.21
2022-12-29T04:37:31.544Z,66.17
2022-12-29T04:42:33.000Z,66.15
2022-12-29T04:47:34.337Z,66.29
2022-12-29T04:52:36.207Z,66.66
2022-12-29T04:57:37.768Z,67.12
2022-12-29T05:02:39.498Z,66.43
2022-12-29T05:07:41.008Z,66.35
2022-12-29T05:12:42.447Z,65.50
2022-12-29T05:17:43.771Z,64.97
2022-12-29T05:22:45.317Z,65.03
2022-12-29T05:27:46.656Z,65.09
2022-12-29T05:32:47.990Z,65.08
2022-12-29T05:37:49.384Z,65.48
2022-12-29T05:42:50.746Z,66.47
2022-12-29T05:47:52.087Z,67.12
2022-12-29T05:52:53.455Z,67.28
2022-12-29T05:57:54.798Z,67.02
2022-12-29T06:02:56.248Z,67.07
2022-12-29T06:07:57.796Z,66.84
2022-12-29T06:12:59.331Z,66.54
2022-12-29T06:18:00.703Z,66.27
2022-12-29T06:23:02.038Z,66.30
2022-12-29T06:28:03.844Z,66.22
2022-12-29T06:33:05.281Z,66.62
2022-12-29T06:38:06.882Z,66.35
2022-12-29T06:43:08.463Z,65.87
2022-12-29T06:48:09.882Z,66.32
2022-12-29T06:53:11.213Z,66.37
2022-12-29T06:58:12.766Z,66.03
2022-12-29T07:03:14.200Z,67.39
2022-12-29T07:08:15.547Z,68.51
2022-12-29T07:13:16.853Z,69.36
2022-12-29T07:18:18.580Z,69.90
2022-12-29T07:23:19.895Z,69.45
2022-12-29T07:28:21.234Z,69.57
2022-12-29T07:33:22.575Z,69.43
2022-12-29T07:38:23.991Z,68.78
2022-12-29T07:43:25.882Z,68.12
2022-12-29T07:48:27.258Z,68.25
2022-12-29T07:53:28.659Z,67.58
2022-12-29T07:58:30.108Z,67.17
2022-12-29T08:03:31.426Z,66.76
2022-12-29T08:08:32.902Z,66.07
2022-12-29T08:13:34.806Z,65.55
2022-12-29T08:18:36.136Z,65.43
2022-12-29T08:23:37.543Z,65.10
2022-12-29T08:28:38.924Z,64.99
2022-12-29T08:33:40.368Z,65.12
2022-12-29T08:38:41.719Z,65.09
2022-12-29T08:43:46.974Z,64.64
2022-12-29T08:48:48.760Z,64.63
2022-12-29T08:53:50.149Z,65.07
2022-12-29T08:58:53.061Z,64.76
2022-12-29T09:04:14.183Z,65.32
2022-12-29T09:09:16.976Z,65.77
2022-12-29T09:14:18.279Z,66.23
2022-12-29T09:19:19.629Z,66.22
2022-12-29T09:24:20.959Z,66.26
2022-12-29T09:29:22.785Z,67.00
2022-12-29T09:34:24.267Z,67.48
2022-12-29T09:39:28.113Z,68.00
2022-12-29T09:44:47.534Z,67.70
2022-12-29T09:50:01.602Z,68.10
2022-12-29T09:55:27.025Z,68.50
2022-12-29T10:00:41.883Z,68.79
2022-12-29T10:05:51.714Z,69.39
2022-12-29T10:11:00.008Z,69.28
2022-12-29T10:16:26.922Z,69.37
2022-12-29T10:21:46.980Z,69.63
2022-12-29T10:26:51.419Z,70.06
2022-12-29T10:32:02.564Z,70.41
2022-12-29T10:37:15.423Z,70.38
2022-12-29T10:42:38.601Z,70.01
2022-12-29T10:47:52.960Z,69.63
2022-12-29T10:52:57.486Z,69.51
2022-12-29T10:58:05.685Z,69.54
2022-12-29T11:03:22.814Z,69.03
2022-12-29T11:08:39.047Z,68.63
2022-12-29T11:13:52.007Z,67.82
2022-12-29T11:18:53.471Z,66.97
2022-12-29T11:24:03.740Z,66.74
2022-12-29T11:29:24.775Z,66.01
2022-12-29T11:34:34.931Z,65.02
2022-12-29T11:39:58.349Z,64.77
2022-12-29T11:45:21.805Z,64.09
2022-12-29T11:50:27.886Z,63.40
2022-12-29T11:55:30.394Z,63.25
2022-12-29T12:00:35.707Z,62.69
2022-12-29T12:05:53.454Z,62.56
2022-12-29T12:11:19.599Z,61.96
2022-12-29T12:16:32.333Z,61.78
2022-12-29T12:21:45.358Z,61.36
2022-12-29T12:27:13.857Z,61.01
2022-12-29T12:32:25.942Z,60.48
2022-12-29T12:38:21.386Z,60.39
2022-12-29T12:43:51.758Z,59.99
2022-12-29T12:49:22.559Z,59.51
2022-12-29T12:54:39.927Z,59.72
2022-12-29T12:59:44.091Z,59.03
2022-12-29T13:05:10.722Z,59.33
2022-12-29T13:10:27.575Z,59.56
2022-12-29T13:15:54.752Z,60.12
2022-12-29T13:21:18.526Z,60.32
2022-12-29T13:26:33.758Z,60.65
2022-12-29T13:31:42.756Z,60.81
2022-12-29T13:36:49.186Z,61.03
2022-12-29T13:41:56.371Z,61.24
2022-12-29T13:47:01.107Z,60.89
2022-12-29T13:52:33.501Z,60.97
2022-12-29T13:57:48.487Z,60.62
2022-12-29T14:02:57.067Z,60.33
2022-12-29T14:08:05.133Z,60.10
2022-12-29T14:13:13.974Z,59.83
2022-12-29T14:18:17.333Z,59.45
2022-12-29T14:23:41.795Z,59.46
2022-12-29T14:28:46.461Z,59.22
2022-12-29T14:34:06.616Z,59.17
2022-12-29T14:39:40.337Z,59.27
2022-12-29T14:44:51.074Z,59.27
2022-12-29T14:49:53.210Z,59.41
2022-12-29T14:55:00.063Z,59.28
2022-12-29T15:00:27.509Z,59.06
2022-12-29T15:05:41.915Z,58.46
2022-12-29T15:11:06.462Z,58.56
2022-12-29T15:16:26.650Z,58.11
2022-12-29T15:21:36.446Z,58.24
2022-12-29T15:26:41.271Z,58.31
2022-12-29T15:31:49.703Z,57.80
2022-12-29T15:36:51.843Z,58.09
2022-12-29T15:42:34.992Z,58.17
2022-12-29T15:47:41.275Z,58.17
2022-12-29T15:52:44.326Z,58.18
2022-12-29T15:57:45.868Z,57.90
2022-12-29T16:02:50.426Z,57.90
2022-12-29T16:07:57.823Z,57.78
2022-12-29T16:13:26.380Z,57.45
2022-12-29T16:18:32.023Z,57.83
2022-12-29T16:23:37.107Z,57.87
2022-12-29T16:28:44.354Z,57.78
2022-12-29T16:33:48.890Z,58.11
2022-12-29T16:38:50.401Z,58.09
2022-12-29T16:44:13.592Z,58.34
2022-12-29T16:49:21.361Z,58.50
2022-12-29T16:54:34.586Z,59.02
2022-12-29T16:59:43.454Z,59.20
2022-12-29T17:04:49.228Z,59.14
2022-12-29T17:09:53.948Z,59.49
2022-12-29T17:14:58.902Z,59.30
2022-12-29T17:20:19.139Z,59.91
2022-12-29T17:25:29.878Z,59.91
2022-12-29T17:30:34.540Z,60.09
2022-12-29T17:35:36.557Z,60.13
2022-12-29T17:40:38.061Z,59.91
2022-12-29T17:45:40.674Z,59.75
2022-12-29T17:50:42.484Z,60.19
2022-12-29T17:55:43.801Z,59.68
2022-12-29T18:00:46.664Z,60.13
2022-12-29T18:05:49.658Z,59.70
2022-12-29T18:10:53.772Z,59.75
2022-12-29T18:15:55.921Z,59.61
2022-12-29T18:20:59.581Z,59.99
2022-12-29T18:26:37.623Z,59.47
2022-12-29T18:31:39.078Z,59.91
2022-12-29T18:36:40.663Z,59.79
2022-12-29T18:41:41.990Z,59.80
2022-12-29T18:46:43.376Z,60.40
2022-12-29T18:51:44.931Z,60.78
2022-12-29T18:56:46.264Z,60.72
2022-12-29T19:01:47.920Z,61.08
2022-12-29T19:06:49.385Z,60.87
2022-12-29T19:11:50.857Z,61.40
2022-12-29T19:16:52.208Z,61.47
2022-12-29T19:21:56.394Z,61.73
2022-12-29T19:26:57.891Z,61.55
2022-12-29T19:31:59.256Z,61.98
2022-12-29T19:37:00.600Z,61.79
2022-12-29T19:42:05.275Z,61.95
2022-12-29T19:47:07.010Z,62.18
2022-12-29T19:52:08.327Z,61.74
2022-12-29T19:57:09.740Z,61.63
2022-12-29T20:02:33.426Z,62.22
2022-12-29T20:07:35.500Z,61.90
2022-12-29T20:12:38.199Z,61.71
2022-12-29T20:18:11.796Z,61.63
2022-12-29T20:23:00.848Z,61.61
2022-12-29T20:28:02.225Z,61.63
2022-12-29T20:33:08.053Z,61.12
2022-12-29T20:38:10.174Z,61.00
2022-12-29T20:43:11.901Z,61.06
2022-12-29T20:48:13.298Z,61.47
2022-12-29T20:53:14.731Z,61.32
2022-12-29T20:58:24.387Z,61.50
2022-12-29T21:03:26.252Z,61.46
2022-12-29T21:08:30.150Z,61.91
2022-12-29T21:13:32.347Z,62.21
2022-12-29T21:18:34.575Z,62.06
2022-12-29T21:23:39.100Z,62.66
2022-12-29T21:28:41.472Z,62.75
2022-12-29T21:33:42.853Z,62.79
2022-12-29T21:38:44.381Z,62.86
2022-12-29T21:44:15.965Z,63.09
2022-12-29T21:49:17.368Z,63.11
2022-12-29T21:54:55.080Z,62.63
2022-12-29T22:00:14.988Z,62.56
2022-12-29T22:05:34.934Z,62.42
2022-12-29T22:16:05.775Z,62.68
2022-12-29T22:21:11.671Z,62.44
2022-12-29T22:26:14.689Z,61.99
2022-12-29T22:31:30.661Z,61.89
2022-12-29T22:36:33.458Z,62.16
2022-12-29T22:41:37.156Z,61.95
2022-12-29T22:46:38.938Z,62.25
2022-12-29T22:51:40.599Z,62.57
2022-12-29T22:56:42.541Z,62.86
2022-12-29T23:01:44.369Z,62.73
2022-12-29T23:06:46.441Z,63.11
2022-12-29T23:11:50.046Z,62.84
2022-12-29T23:16:51.718Z,63.14
2022-12-29T23:22:10.415Z,63.28
2022-12-29T23:27:37.877Z,63.82
2022-12-29T23:32:39.627Z,63.57
2022-12-29T23:37:40.980Z,63.82
2022-12-29T23:42:42.311Z,63.84
2022-12-29T23:47:43.627Z,64.02
2022-12-29T23:52:45.391Z,64.41
2022-12-29T23:57:46.839Z,64.80
